createdAt,value
2019-06-07T00:01:29.481Z,96.28
2019-06-07T00:03:57.150Z,95.98
2019-06-07T00:06:25.393Z,95.64
2019-06-07T00:08:52.143Z,94.36
2019-06-07T00:11:20.673Z,94.21
2019-06-07T00:13:47.169Z,94.26
2019-06-07T00:16:16.943Z,94.72
2019-06-07T00:18:42.452Z,94.19
2019-06-07T00:21:11.859Z,94.11
2019-06-07T00:23:38.393Z,94.08
2019-06-07T00:26:05.253Z,94.81
2019-06-07T00:28:31.761Z,94.62
2019-06-07T00:30:58.366Z,94.45
2019-06-07T00:33:25.922Z,94.33
2019-06-07T00:35:52.371Z,94.21
2019-06-07T00:38:21.771Z,94.26
2019-06-07T00:40:47.417Z,95.25
2019-06-07T00:43:17.588Z,95.85
2019-06-07T00:45:42.892Z,95.33
2019-06-07T00:48:16.157Z,95.39
2019-06-07T00:50:37.787Z,95.33
2019-06-07T00:53:15.510Z,95.37
2019-06-07T00:55:33.454Z,96.05
2019-06-07T00:58:00.139Z,96.56
2019-06-07T01:00:26.727Z,96.02
2019-06-07T01:02:53.446Z,95.35
2019-06-07T01:05:26.098Z,95.77
2019-06-07T01:07:48.826Z,96.01
2019-06-07T01:10:34.588Z,96.06
2019-06-07T01:12:45.487Z,96.43
2019-06-07T01:15:15.782Z,96.49
2019-06-07T01:18:11.891Z,96.38
2019-06-07T01:20:11.571Z,96.33
2019-06-07T01:22:38.503Z,96.32
2019-06-07T01:25:07.126Z,96.12
2019-06-07T01:27:36.685Z,96.13
2019-06-07T01:30:05.109Z,96.42
2019-06-07T01:32:31.974Z,95.84
2019-06-07T01:34:58.497Z,95.42
2019-06-07T01:37:27.879Z,95.43
2019-06-07T01:39:53.616Z,95.66
2019-06-07T01:42:22.594Z,96.22
2019-06-07T01:44:49.820Z,95.85
2019-06-07T01:47:17.835Z,95.87
2019-06-07T01:49:44.693Z,96.71
2019-06-07T01:52:11.187Z,96.88
2019-06-07T01:54:58.644Z,97.53
2019-06-07T01:57:06.081Z,97.80
2019-06-07T01:59:32.593Z,97.94
2019-06-07T02:01:59.320Z,98.00
2019-06-07T02:04:29.372Z,97.97
2019-06-07T02:06:54.467Z,97.72
2019-06-07T02:09:23.361Z,97.94
2019-06-07T02:11:49.946Z,97.79
2019-06-07T02:14:16.450Z,97.73
2019-06-07T02:16:42.927Z,97.59
2019-06-07T02:19:10.429Z,97.25
2019-06-07T02:21:37.028Z,97.41
2019-06-07T02:24:03.706Z,97.78
2019-06-07T02:26:32.511Z,98.04
2019-06-07T02:28:58.643Z,98.53
2019-06-07T02:31:27.884Z,98.99
2019-06-07T02:33:53.511Z,99.21
2019-06-07T02:36:24.763Z,99.13
2019-06-07T02:38:48.417Z,99.81
2019-06-07T02:41:15.293Z,100.00
2019-06-07T02:43:41.864Z,99.96
2019-06-07T02:46:35.116Z,99.79
2019-06-07T02:48:54.985Z,99.96
2019-06-07T02:51:32.129Z,100.00
2019-06-07T02:53:54.548Z,100.00
2019-06-07T02:56:39.095Z,100.00
2019-06-07T02:58:49.678Z,100.00
2019-06-07T03:01:16.413Z,100.00
2019-06-07T03:03:43.088Z,99.72
2019-06-07T03:06:12.650Z,99.53
2019-06-07T03:08:39.650Z,99.38
2019-06-07T03:11:06.868Z,99.45
2019-06-07T03:13:37.177Z,99.35
2019-06-07T03:16:03.772Z,99.33
2019-06-07T03:18:52.644Z,99.31
2019-06-07T03:21:21.642Z,99.44
2019-06-07T03:23:51.651Z,99.44
2019-06-07T03:26:20.415Z,100.00
2019-06-07T03:28:46.930Z,100.00
2019-06-07T03:31:14.703Z,100.00
2019-06-07T03:33:44.608Z,100.00
2019-06-07T03:36:23.295Z,100.00
2019-06-07T03:38:39.949Z,100.00
2019-06-07T03:41:06.714Z,99.75
2019-06-07T03:43:40.474Z,99.64
2019-06-07T03:46:05.455Z,99.75
2019-06-07T03:48:32.887Z,100.00
2019-06-07T03:51:04.901Z,100.00
2019-06-07T03:53:31.132Z,100.00
2019-06-07T03:55:58.941Z,100.00
2019-06-07T03:58:45.721Z,100.00
2019-06-07T04:00:54.153Z,100.00
2019-06-07T04:03:33.406Z,100.00
2019-06-07T04:05:50.006Z,99.80
2019-06-07T04:08:16.596Z,99.68
2019-06-07T04:10:58.013Z,99.85
2019-06-07T04:13:11.695Z,100.00
2019-06-07T04:15:41.222Z,100.00
2019-06-07T04:18:07.213Z,100.00
2019-06-07T04:20:36.123Z,100.00
2019-06-07T04:23:02.560Z,100.00
2019-06-07T04:25:31.760Z,100.00
2019-06-07T04:27:58.217Z,100.00
2019-06-07T04:30:39.519Z,100.00
2019-06-07T04:33:07.457Z,100.00
2019-06-07T04:35:36.253Z,100.00
2019-06-07T04:38:02.725Z,100.00
2019-06-07T04:40:30.693Z,100.00
2019-06-07T04:42:58.331Z,100.00
2019-06-07T04:45:36.213Z,100.00
2019-06-07T04:47:54.974Z,100.00
2019-06-07T04:50:21.492Z,100.00
2019-06-07T04:52:47.988Z,99.38
2019-06-07T04:55:14.536Z,99.13
2019-06-07T04:57:43.225Z,98.53
2019-06-07T05:00:45.688Z,97.79
2019-06-07T05:02:40.875Z,97.15
2019-06-07T05:05:07.236Z,96.28
2019-06-07T05:07:35.139Z,95.92
2019-06-07T05:10:03.479Z,94.85
2019-06-07T05:12:32.522Z,95.00
2019-06-07T05:14:58.836Z,94.03
2019-06-07T05:17:25.356Z,91.79
2019-06-07T05:22:26.947Z,88.13
2019-06-07T05:24:54.574Z,86.46
2019-06-07T05:27:21.249Z,85.40
2019-06-07T05:30:09.070Z,84.00
2019-06-07T05:32:18.218Z,82.38
2019-06-07T05:34:47.439Z,82.00
2019-06-07T05:37:14.676Z,77.85
2019-06-07T05:39:46.468Z,76.06
2019-06-07T05:42:12.946Z,74.97
2019-06-07T05:44:44.094Z,75.07
2019-06-07T05:47:09.465Z,75.14
2019-06-07T05:49:40.651Z,73.43
2019-06-07T05:52:04.564Z,69.17
2019-06-07T05:54:35.079Z,68.67
2019-06-07T05:57:00.717Z,67.85
2019-06-07T05:59:27.705Z,65.14
2019-06-07T06:02:02.712Z,63.25
2019-06-07T06:04:26.081Z,63.63
2019-06-07T06:06:57.334Z,64.08
2019-06-07T06:09:30.151Z,65.92
2019-06-07T06:12:02.314Z,63.21
2019-06-07T06:14:25.935Z,63.21
2019-06-07T06:16:54.592Z,62.02
2019-06-07T06:19:21.205Z,63.69
2019-06-07T06:21:48.711Z,63.69
2019-06-07T06:24:15.296Z,61.83
2019-06-07T06:26:50.317Z,61.64
2019-06-07T06:29:10.337Z,60.76
2019-06-07T06:31:37.888Z,60.76
2019-06-07T06:34:05.538Z,59.76
2019-06-07T06:36:32.636Z,60.10
2019-06-07T06:38:59.225Z,60.13
2019-06-07T06:41:25.957Z,58.78
2019-06-07T06:43:53.660Z,59.37
2019-06-07T06:46:38.294Z,59.18
2019-06-07T06:49:00.993Z,59.27
2019-06-07T06:51:27.626Z,57.85
2019-06-07T06:54:02.589Z,60.63
2019-06-07T06:56:37.488Z,59.41
2019-06-07T07:01:39.792Z,57.04
2019-06-07T07:04:13.006Z,59.52
2019-06-07T07:06:35.752Z,58.03
2019-06-07T07:09:03.914Z,58.21
2019-06-07T07:11:31.222Z,56.98
2019-06-07T07:14:13.332Z,57.15
2019-06-07T07:17:00.999Z,56.19
2019-06-07T07:19:36.284Z,57.85
2019-06-07T07:22:12.265Z,59.02
2019-06-07T07:24:44.594Z,58.15
2019-06-07T07:27:11.376Z,58.81
2019-06-07T07:30:00.051Z,58.48
2019-06-07T07:32:29.285Z,58.91
2019-06-07T07:35:00.517Z,61.54
2019-06-07T07:37:24.478Z,63.91
2019-06-07T07:40:00.910Z,64.70
2019-06-07T07:42:21.743Z,63.61
2019-06-07T07:44:49.880Z,63.08
2019-06-07T07:47:16.987Z,62.97
2019-06-07T07:49:44.784Z,61.04
2019-06-07T07:52:11.991Z,62.13
2019-06-07T07:54:38.454Z,64.03
2019-06-07T07:57:05.815Z,63.54
2019-06-07T07:59:41.993Z,62.69
2019-06-07T08:02:04.629Z,62.89
2019-06-07T08:05:12.996Z,62.52
2019-06-07T08:07:00.171Z,61.91
2019-06-07T08:09:26.987Z,61.09
2019-06-07T08:12:00.079Z,60.76
2019-06-07T08:14:23.035Z,61.52
2019-06-07T08:16:51.831Z,62.93
2019-06-07T08:19:18.619Z,63.23
2019-06-07T08:21:47.421Z,63.89
2019-06-07T08:24:16.683Z,65.15
2019-06-07T08:26:44.371Z,64.54
2019-06-07T08:29:11.526Z,64.54
2019-06-07T08:31:39.519Z,65.58
2019-06-07T08:34:06.211Z,65.58
2019-06-07T08:36:41.974Z,66.88
2019-06-07T08:39:07.268Z,66.24
2019-06-07T08:41:30.187Z,67.33
2019-06-07T08:44:00.566Z,66.29
2019-06-07T08:46:25.520Z,66.93
2019-06-07T08:48:57.141Z,66.28
2019-06-07T08:51:23.375Z,66.63
2019-06-07T08:54:09.259Z,65.16
2019-06-07T08:56:19.165Z,65.16
2019-06-07T08:58:49.409Z,64.40
2019-06-07T09:01:16.026Z,62.31
2019-06-07T09:03:42.580Z,62.31
2019-06-07T09:06:53.889Z,59.98
2019-06-07T09:08:38.209Z,58.87
2019-06-07T09:11:10.573Z,58.54
2019-06-07T09:13:35.367Z,60.19
2019-06-07T09:16:08.004Z,60.07
2019-06-07T09:18:42.201Z,59.81
2019-06-07T09:21:01.206Z,60.19
2019-06-07T09:23:27.616Z,58.61
2019-06-07T09:26:02.072Z,58.94
2019-06-07T09:28:28.948Z,57.82
2019-06-07T09:30:57.104Z,58.57
2019-06-07T09:33:24.000Z,56.19
2019-06-07T09:35:50.718Z,57.25
2019-06-07T09:38:26.052Z,59.51
2019-06-07T09:40:51.026Z,60.73
2019-06-07T09:45:46.638Z,61.85
2019-06-07T09:48:16.485Z,62.39
2019-06-07T09:50:41.686Z,61.89
2019-06-07T09:53:26.356Z,62.39
2019-06-07T09:55:53.291Z,62.98
2019-06-07T09:58:51.356Z,61.17
2019-06-07T10:00:52.725Z,61.26
2019-06-07T10:03:22.333Z,59.41
2019-06-07T10:05:47.831Z,61.05
2019-06-07T10:09:00.987Z,60.21
2019-06-07T10:10:43.461Z,58.22
2019-06-07T10:13:10.423Z,57.71
2019-06-07T10:15:37.204Z,57.22
2019-06-07T10:18:04.866Z,57.02
2019-06-07T10:20:33.952Z,56.63
2019-06-07T10:23:01.635Z,56.74
2019-06-07T10:25:28.510Z,58.40
2019-06-07T10:27:55.059Z,58.13
2019-06-07T10:30:21.775Z,57.23
2019-06-07T10:32:52.044Z,56.70
2019-06-07T10:35:20.844Z,57.45
2019-06-07T10:37:47.342Z,57.98
2019-06-07T10:40:14.103Z,57.35
2019-06-07T10:42:41.379Z,57.17
2019-06-07T10:45:10.344Z,56.75
2019-06-07T10:47:37.261Z,55.67
2019-06-07T10:50:04.368Z,55.93
2019-06-07T10:52:30.817Z,55.85
2019-06-07T10:54:58.365Z,54.70
2019-06-07T10:57:24.963Z,53.86
2019-06-07T10:59:51.563Z,53.06
2019-06-07T11:02:18.684Z,52.05
2019-06-07T11:04:45.501Z,49.92
2019-06-07T11:07:16.333Z,47.32
2019-06-07T11:09:43.213Z,47.24
2019-06-07T11:12:10.775Z,45.61
2019-06-07T11:14:37.337Z,47.27
2019-06-07T11:17:05.324Z,45.81
2019-06-07T11:19:32.035Z,47.31
2019-06-07T11:21:58.955Z,47.26
2019-06-07T11:24:25.612Z,46.75
2019-06-07T11:26:53.219Z,47.45
2019-06-07T11:29:20.488Z,48.71
2019-06-07T11:31:47.671Z,47.28
2019-06-07T11:34:14.733Z,46.93
2019-06-07T11:36:41.807Z,46.29
2019-06-07T11:39:09.070Z,48.15
2019-06-07T11:41:35.715Z,50.10
2019-06-07T11:44:02.948Z,47.71
2019-06-07T11:46:29.538Z,46.05
2019-06-07T11:48:56.310Z,44.49
2019-06-07T11:51:23.181Z,45.03
2019-06-07T11:53:49.681Z,46.45
2019-06-07T11:56:16.225Z,44.93
2019-06-07T11:58:42.954Z,47.02
2019-06-07T12:01:09.740Z,47.74
2019-06-07T12:03:37.056Z,45.68
2019-06-07T12:06:03.758Z,45.65
2019-06-07T12:08:30.861Z,46.16
2019-06-07T12:10:57.494Z,45.70
2019-06-07T12:13:26.876Z,46.52
2019-06-07T12:15:52.777Z,45.63
2019-06-07T12:18:30.537Z,44.86
2019-06-07T12:21:15.729Z,44.75
2019-06-07T12:23:42.580Z,43.83
2019-06-07T12:26:10.476Z,44.22
2019-06-07T12:28:37.030Z,44.23
2019-06-07T12:31:03.671Z,45.64
2019-06-07T12:33:30.915Z,47.30
2019-06-07T12:35:57.426Z,46.65
2019-06-07T12:38:23.975Z,47.09
2019-06-07T12:40:57.546Z,47.52
2019-06-07T12:43:23.068Z,47.57
2019-06-07T12:45:50.049Z,46.80
2019-06-07T12:48:20.525Z,47.29
2019-06-07T12:50:44.973Z,47.61
2019-06-07T12:53:11.718Z,47.50
2019-06-07T12:55:38.254Z,48.28
2019-06-07T12:58:04.937Z,46.51
2019-06-07T13:00:31.646Z,47.66
2019-06-07T13:02:58.182Z,46.50
2019-06-07T13:05:27.992Z,47.61
2019-06-07T13:07:54.780Z,46.22
2019-06-07T13:10:22.049Z,46.21
2019-06-07T13:12:49.084Z,45.93
2019-06-07T13:15:19.668Z,46.58
2019-06-07T13:17:44.632Z,46.05
2019-06-07T13:20:11.545Z,44.71
2019-06-07T13:22:38.128Z,46.26
2019-06-07T13:25:05.432Z,46.61
2019-06-07T13:27:33.767Z,46.92
2019-06-07T13:30:09.165Z,48.65
2019-06-07T13:32:35.065Z,49.13
2019-06-07T13:35:01.818Z,48.85
2019-06-07T13:37:28.376Z,49.38
2019-06-07T13:39:54.833Z,50.13
2019-06-07T13:42:22.848Z,48.66
2019-06-07T13:44:49.663Z,48.05
2019-06-07T13:47:16.884Z,47.60
2019-06-07T13:49:43.372Z,47.05
2019-06-07T13:52:10.026Z,47.95
2019-06-07T13:54:36.676Z,49.05
2019-06-07T13:57:04.923Z,48.22
2019-06-07T13:59:31.459Z,48.65
2019-06-07T14:01:58.647Z,48.76
2019-06-07T14:04:25.233Z,49.64
2019-06-07T14:06:51.794Z,49.17
2019-06-07T14:09:19.225Z,48.71
2019-06-07T14:11:50.745Z,50.15
2019-06-07T14:14:14.963Z,49.93
2019-06-07T14:16:41.506Z,50.90
2019-06-07T14:19:08.264Z,50.74
2019-06-07T14:21:34.975Z,51.48
2019-06-07T14:24:01.649Z,51.04
2019-06-07T14:26:29.432Z,50.70
2019-06-07T14:28:55.990Z,51.33
2019-06-07T14:31:24.554Z,51.66
2019-06-07T14:33:51.510Z,51.62
2019-06-07T14:36:18.438Z,51.46
2019-06-07T14:38:44.960Z,51.90
2019-06-07T14:41:11.482Z,52.39
2019-06-07T14:43:37.977Z,51.33
2019-06-07T14:46:04.520Z,51.88
2019-06-07T14:48:32.637Z,52.87
2019-06-07T14:50:59.322Z,52.24
2019-06-07T14:53:26.596Z,53.32
2019-06-07T14:55:53.190Z,53.31
2019-06-07T14:58:20.099Z,53.99
2019-06-07T15:00:46.876Z,53.75
2019-06-07T15:03:13.501Z,53.50
2019-06-07T15:05:49.663Z,53.58
2019-06-07T15:08:16.490Z,53.85
2019-06-07T15:10:43.302Z,53.88
2019-06-07T15:13:09.927Z,54.28
2019-06-07T15:15:36.647Z,55.01
2019-06-07T15:18:03.664Z,54.80
2019-06-07T15:20:34.096Z,55.77
2019-06-07T15:23:01.117Z,55.16
2019-06-07T15:25:29.072Z,55.03
2019-06-07T15:27:55.670Z,54.92
2019-06-07T15:30:22.862Z,55.08
2019-06-07T15:32:50.486Z,55.17
2019-06-07T15:35:17.428Z,55.13
2019-06-07T15:37:45.236Z,55.55
2019-06-07T15:40:12.128Z,55.55
2019-06-07T15:42:49.745Z,55.20
2019-06-07T15:45:09.284Z,55.17
2019-06-07T15:47:35.998Z,55.67
2019-06-07T15:50:03.092Z,55.14
2019-06-07T15:52:31.568Z,55.22
2019-06-07T15:54:58.024Z,55.48
2019-06-07T15:57:25.063Z,55.80
2019-06-07T15:59:52.201Z,55.48
2019-06-07T16:02:18.777Z,55.29
2019-06-07T16:04:47.752Z,55.20
2019-06-07T16:07:14.897Z,55.70
2019-06-07T16:09:42.741Z,55.67
2019-06-07T16:12:09.440Z,56.44
2019-06-07T16:14:37.091Z,56.06
2019-06-07T16:17:03.673Z,55.86
2019-06-07T16:19:31.325Z,55.91
2019-06-07T16:21:57.858Z,55.64
2019-06-07T16:24:24.701Z,56.38
2019-06-07T16:26:51.217Z,56.17
2019-06-07T16:29:17.829Z,56.34
2019-06-07T16:31:45.124Z,55.78
2019-06-07T16:34:15.923Z,56.48
2019-06-07T16:36:44.719Z,56.47
2019-06-07T16:39:12.257Z,56.32
2019-06-07T16:41:40.546Z,56.46
2019-06-07T16:44:07.150Z,56.88
2019-06-07T16:46:40.660Z,56.21
2019-06-07T16:49:07.575Z,56.81
2019-06-07T16:51:34.487Z,56.10
2019-06-07T16:54:01.165Z,56.76
2019-06-07T16:56:27.924Z,57.40
2019-06-07T16:58:54.455Z,57.28
2019-06-07T17:01:21.007Z,57.53
2019-06-07T17:03:47.950Z,58.01
2019-06-07T17:06:14.490Z,58.09
2019-06-07T17:08:42.160Z,58.29
2019-06-07T17:11:08.730Z,58.21
2019-06-07T17:13:38.651Z,58.03
2019-06-07T17:16:05.445Z,57.93
2019-06-07T17:18:37.188Z,58.22
2019-06-07T17:21:07.815Z,57.34
2019-06-07T17:23:34.655Z,58.08
2019-06-07T17:26:03.983Z,57.92
2019-06-07T17:28:31.721Z,58.03
2019-06-07T17:31:04.288Z,58.15
2019-06-07T17:33:31.285Z,58.37
2019-06-07T17:35:57.923Z,58.13
2019-06-07T17:38:24.422Z,57.82
2019-06-07T17:40:53.338Z,58.27
2019-06-07T17:43:19.918Z,58.34
2019-06-07T17:45:47.518Z,58.46
2019-06-07T17:48:19.151Z,58.75
2019-06-07T17:50:45.944Z,58.37
2019-06-07T17:53:12.553Z,58.52
2019-06-07T17:55:39.202Z,58.22
2019-06-07T17:58:06.766Z,58.63
2019-06-07T18:00:48.799Z,58.99
2019-06-07T18:03:15.949Z,59.34
2019-06-07T18:05:43.165Z,59.51
2019-06-07T18:08:09.960Z,59.90
2019-06-07T18:10:38.114Z,60.56
2019-06-07T18:13:05.286Z,61.34
2019-06-07T18:15:39.799Z,61.70
2019-06-07T18:18:08.912Z,62.06
2019-06-07T18:20:35.600Z,62.84
2019-06-07T18:23:03.331Z,63.75
2019-06-07T18:25:30.000Z,64.41
2019-06-07T18:27:56.625Z,64.90
2019-06-07T18:30:25.150Z,65.12
2019-06-07T18:32:52.954Z,65.57
2019-06-07T18:35:19.592Z,66.40
2019-06-07T18:37:46.975Z,65.93
2019-06-07T18:40:13.724Z,65.26
2019-06-07T18:42:40.276Z,66.35
2019-06-07T18:45:07.084Z,65.60
2019-06-07T18:47:33.634Z,66.00
2019-06-07T18:50:01.462Z,66.48
2019-06-07T18:52:34.146Z,67.00
2019-06-07T18:55:01.960Z,67.37
2019-06-07T18:57:28.732Z,67.98
2019-06-07T18:59:56.568Z,68.74
2019-06-07T19:02:26.187Z,69.18
2019-06-07T19:04:54.197Z,69.43
2019-06-07T19:07:20.887Z,69.99
2019-06-07T19:09:48.506Z,70.37
2019-06-07T19:12:15.117Z,70.90
2019-06-07T19:14:41.960Z,70.77
2019-06-07T19:17:08.782Z,71.40
2019-06-07T19:19:35.362Z,71.26
2019-06-07T19:22:04.135Z,71.57
2019-06-07T19:24:30.973Z,71.66
2019-06-07T19:26:58.698Z,72.36
2019-06-07T19:29:27.467Z,72.85
2019-06-07T19:31:54.967Z,72.68
2019-06-07T19:34:22.725Z,72.61
2019-06-07T19:36:51.474Z,73.01
2019-06-07T19:39:19.323Z,72.03
2019-06-07T19:41:46.057Z,71.90
2019-06-07T19:44:12.515Z,71.95
2019-06-07T19:46:39.159Z,71.47
2019-06-07T19:49:08.869Z,70.15
2019-06-07T19:51:36.296Z,68.99
2019-06-07T19:54:03.762Z,68.64
2019-06-07T19:56:30.971Z,69.41
2019-06-07T19:58:59.749Z,70.15
2019-06-07T20:01:29.355Z,71.08
2019-06-07T20:03:56.398Z,71.87
2019-06-07T20:06:23.011Z,71.13
2019-06-07T20:08:49.573Z,69.87
2019-06-07T20:11:16.134Z,68.85
2019-06-07T20:13:44.316Z,68.19
2019-06-07T20:16:11.143Z,68.02
2019-06-07T20:18:37.778Z,68.31
2019-06-07T20:21:04.941Z,68.87
2019-06-07T20:23:31.732Z,69.06
2019-06-07T20:25:58.314Z,69.02
2019-06-07T20:28:26.131Z,69.07
2019-06-07T20:30:53.091Z,69.31
2019-06-07T20:33:19.802Z,68.91
2019-06-07T20:35:46.349Z,69.15
2019-06-07T20:38:13.020Z,68.97
2019-06-07T20:40:41.582Z,68.95
2019-06-07T20:43:08.315Z,68.80
2019-06-07T20:45:36.034Z,68.53
2019-06-07T20:48:04.088Z,68.52
2019-06-07T20:50:30.840Z,68.65
2019-06-07T20:53:03.017Z,69.53
2019-06-07T20:55:30.073Z,66.77
2019-06-07T20:57:56.530Z,66.57
2019-06-07T21:00:24.206Z,66.63
2019-06-07T21:02:52.743Z,67.08
2019-06-07T21:05:19.358Z,68.32
2019-06-07T21:07:46.974Z,68.67
2019-06-07T21:10:15.641Z,67.05
2019-06-07T21:12:42.518Z,66.96
2019-06-07T21:15:12.754Z,65.92
2019-06-07T21:17:37.876Z,64.86
2019-06-07T21:20:07.722Z,66.79
2019-06-07T21:22:35.134Z,68.03
2019-06-07T21:25:03.101Z,70.46
2019-06-07T21:27:31.833Z,70.46
2019-06-07T21:29:58.704Z,76.82
2019-06-07T21:32:25.244Z,80.71
2019-06-07T21:34:51.781Z,83.85
2019-06-07T21:37:18.255Z,83.03
2019-06-07T21:39:44.773Z,81.63
2019-06-07T21:42:12.380Z,81.97
2019-06-07T21:44:40.006Z,82.05
2019-06-07T21:47:06.830Z,81.71
2019-06-07T21:49:39.094Z,81.43
2019-06-07T21:52:06.466Z,80.98
2019-06-07T21:54:34.132Z,81.38
2019-06-07T21:57:02.811Z,80.32
2019-06-07T21:59:37.670Z,79.28
2019-06-07T22:02:05.409Z,78.95
2019-06-07T22:04:32.946Z,79.15
2019-06-07T22:06:59.480Z,79.20
2019-06-07T22:09:27.079Z,80.80
2019-06-07T22:11:53.843Z,78.69
2019-06-07T22:14:20.499Z,80.06
2019-06-07T22:16:48.080Z,80.86
2019-06-07T22:19:14.904Z,80.75
2019-06-07T22:21:41.461Z,80.93
2019-06-07T22:24:08.918Z,81.17
2019-06-07T22:26:35.844Z,81.10
2019-06-07T22:29:03.810Z,81.25
2019-06-07T22:31:31.438Z,81.99
2019-06-07T22:33:57.892Z,80.71
2019-06-07T22:36:24.374Z,81.40
2019-06-07T22:38:50.895Z,80.25
2019-06-07T22:41:17.738Z,79.08
2019-06-07T22:43:44.144Z,79.53
2019-06-07T22:46:10.907Z,80.24
2019-06-07T22:48:37.358Z,80.30
2019-06-07T22:51:08.830Z,80.24
2019-06-07T22:53:40.619Z,81.07
2019-06-07T22:56:13.958Z,81.14
2019-06-07T22:58:40.476Z,81.90
2019-06-07T23:01:08.213Z,82.55
2019-06-07T23:03:34.694Z,82.71
2019-06-07T23:06:01.736Z,84.38
2019-06-07T23:08:28.232Z,85.10
2019-06-07T23:10:54.721Z,85.78
2019-06-07T23:13:21.281Z,85.50
2019-06-07T23:15:47.750Z,86.04
2019-06-07T23:18:15.492Z,86.00
2019-06-07T23:20:42.147Z,87.39
2019-06-07T23:23:08.691Z,86.45
2019-06-07T23:25:35.393Z,87.29
2019-06-07T23:28:02.027Z,87.20
2019-06-07T23:30:28.514Z,85.54
2019-06-07T23:32:57.023Z,83.46
2019-06-07T23:35:23.551Z,82.43
2019-06-07T23:37:50.034Z,82.12
2019-06-07T23:40:17.759Z,81.40
2019-06-07T23:42:44.280Z,82.10
2019-06-07T23:45:12.074Z,82.88
2019-06-07T23:47:39.584Z,81.24
2019-06-07T23:50:06.526Z,82.59
2019-06-07T23:52:37.416Z,81.98
2019-06-07T23:55:04.229Z,82.49
2019-06-07T23:57:31.175Z,81.97
2019-06-07T23:59:57.655Z,81.96
